Time;durP1;ratioP1;P1;durP2;ratioP2;P2;SDS_P1;SDS_P2;PMS_P1;PMS_P2;Temp;Humidity;BMP_temperature;BMP_pressure;BME280_temperature;BME280_humidity;BME280_pressure;Samples;Min_cycle;Max_cycle;Signal;HPM_P1;HPM_P2
2021/04/22 00:01:02;;;;;;;7.22;6.53;;;;;;;;;;3566645;40;20491;-71
2021/04/22 00:03:28;;;;;;;6.40;5.80;;;;;;;;;;3564600;40;20781;-70
2021/04/22 00:05:54;;;;;;;6.38;5.78;;;;;;;;;;3564744;40;20401;-70
2021/04/22 00:08:21;;;;;;;6.18;5.63;;;;;;;;;;3565111;40;20771;-70
2021/04/22 00:10:48;;;;;;;5.68;5.18;;;;;;;;;;3563198;40;20777;-70
2021/04/22 00:13:16;;;;;;;5.88;5.38;;;;;;;;;;3565545;40;20404;-71
2021/04/22 00:15:43;;;;;;;5.90;5.35;;;;;;;;;;3563779;40;20671;-74
2021/04/22 00:18:10;;;;;;;6.40;5.68;;;;;;;;;;3567312;40;20404;-71
2021/04/22 00:20:37;;;;;;;5.68;5.18;;;;;;;;;;3565327;40;20478;-71
2021/04/22 00:23:03;;;;;;;6.40;5.23;;;;;;;;;;3565552;40;20461;-71
2021/04/22 00:25:30;;;;;;;5.65;5.15;;;;;;;;;;3565533;40;20852;-71
2021/04/22 00:27:58;;;;;;;5.90;5.40;;;;;;;;;;3566358;40;20448;-70
2021/04/22 00:30:25;;;;;;;6.53;5.93;;;;;;;;;;3560047;40;20457;-70
2021/04/22 00:32:52;;;;;;;6.85;5.93;;;;;;;;;;3568424;40;20813;-70
2021/04/22 00:35:18;;;;;;;7.10;6.50;;;;;;;;;;3564574;40;20416;-70
2021/04/22 00:37:44;;;;;;;6.68;6.07;;;;;;;;;;3567773;40;20394;-70
2021/04/22 00:40:13;;;;;;;7.70;6.50;;;;;;;;;;3564831;40;20442;-70
2021/04/22 00:42:40;;;;;;;7.65;6.95;;;;;;;;;;3566532;40;20646;-71
2021/04/22 00:45:07;;;;;;;7.97;6.60;;;;;;;;;;3568516;40;20771;-71
2021/04/22 00:47:34;;;;;;;7.15;6.47;;;;;;;;;;3566948;40;20385;-71
2021/04/22 00:50:00;;;;;;;7.03;6.32;;;;;;;;;;3566825;40;20385;-70
2021/04/22 00:52:27;;;;;;;7.28;6.57;;;;;;;;;;3570204;40;20389;-71
2021/04/22 00:54:53;;;;;;;7.50;6.80;;;;;;;;;;3564640;40;20751;-71
2021/04/22 00:57:19;;;;;;;6.85;6.25;;;;;;;;;;3569840;40;20409;-71
2021/04/22 00:59:45;;;;;;;7.25;6.63;;;;;;;;;;3571545;40;20477;-70
2021/04/22 01:02:12;;;;;;;6.90;6.30;;;;;;;;;;3568033;40;20397;-67
2021/04/22 01:04:39;;;;;;;7.57;6.88;;;;;;;;;;3620176;23;20704;-70
2021/04/22 01:07:05;;;;;;;7.82;7.03;;;;;;;;;;3574737;40;20404;-70
2021/04/22 01:09:31;;;;;;;7.67;6.97;;;;;;;;;;3565089;40;20392;-71
2021/04/22 01:12:00;;;;;;;7.68;6.97;;;;;;;;;;3574288;40;20385;-71
2021/04/22 01:14:26;;;;;;;7.18;6.38;;;;;;;;;;3571867;40;20396;-71
2021/04/22 01:16:53;;;;;;;6.78;6.18;;;;;;;;;;3576501;40;20440;-70
2021/04/22 01:19:19;;;;;;;7.28;6.57;;;;;;;;;;3573145;40;20394;-70
2021/04/22 01:21:46;;;;;;;7.15;6.55;;;;;;;;;;3569163;40;20384;-70
2021/04/22 01:24:12;;;;;;;6.50;5.85;;;;;;;;;;3573319;40;20748;-71
2021/04/22 01:26:39;;;;;;;7.20;6.50;;;;;;;;;;3573690;40;20377;-71
2021/04/22 01:29:06;;;;;;;8.15;7.35;;;;;;;;;;3579601;40;20408;-71
2021/04/22 01:31:32;;;;;;;7.85;7.13;;;;;;;;;;3573264;40;20406;-71
2021/04/22 01:33:59;;;;;;;7.37;6.67;;;;;;;;;;3571200;40;20411;-71
2021/04/22 01:36:26;;;;;;;8.52;7.72;;;;;;;;;;3573594;40;20820;-71
2021/04/22 01:38:53;;;;;;;7.75;7.05;;;;;;;;;;3575961;40;20380;-71
2021/04/22 01:41:19;;;;;;;7.18;6.47;;;;;;;;;;3576325;40;20749;-72
2021/04/22 01:43:45;;;;;;;7.40;6.80;;;;;;;;;;3576350;40;20388;-71
2021/04/22 01:46:11;;;;;;;8.57;7.70;;;;;;;;;;3574997;40;20399;-71
2021/04/22 01:48:38;;;;;;;7.50;6.80;;;;;;;;;;3573117;40;20769;-70
2021/04/22 01:51:05;;;;;;;7.93;7.23;;;;;;;;;;3575284;40;20394;-70
2021/04/22 01:53:31;;;;;;;7.00;6.30;;;;;;;;;;3577725;40;20803;-71
2021/04/22 01:55:58;;;;;;;7.75;7.05;;;;;;;;;;3577812;40;20383;-70
2021/04/22 01:58:25;;;;;;;9.48;8.50;;;;;;;;;;3573071;40;20407;-71
2021/04/22 02:00:54;;;;;;;9.68;8.88;;;;;;;;;;3572948;40;20421;-70
2021/04/22 02:03:20;;;;;;;9.48;8.68;;;8.30;99.90;;;;;;3567765;40;20412;-70
2021/04/22 02:05:47;;;;;;;8.70;7.90;;;;;;;;;;3573892;40;20370;-70
2021/04/22 02:08:14;;;;;;;8.25;7.55;;;;;;;;;;3576774;40;20406;-71
2021/04/22 02:10:40;;;;;;;7.22;6.53;;;;;;;;;;3577631;40;20749;-70
2021/04/22 02:13:09;;;;;;;8.02;7.22;;;;;;;;;;3577006;40;20507;-70
2021/04/22 02:15:37;;;;;;;7.70;6.93;;;;;;;;;;3577443;40;20725;-71
2021/04/22 02:18:03;;;;;;;8.52;7.63;;;;;;;;;;3577141;40;20380;-71
2021/04/22 02:20:30;;;;;;;8.70;7.90;;;;;;;;;;3570978;40;20646;-70
2021/04/22 02:22:56;;;;;;;8.00;7.28;;;;;;;;;;3567926;40;20426;-71
2021/04/22 02:25:23;;;;;;;8.70;7.72;;;;;;;;;;3574946;40;20639;-71
2021/04/22 02:27:50;;;;;;;7.95;7.25;;;;;;;;;;3573223;40;20412;-70
2021/04/22 02:30:18;;;;;;;7.18;6.55;;;;;;;;;;3577328;40;20376;-71
2021/04/22 02:32:45;;;;;;;8.88;8.07;;;;;;;;;;3577499;40;20774;-71
2021/04/22 02:35:12;;;;;;;8.98;8.18;;;;;;;;;;3576931;40;20396;-72
2021/04/22 02:37:39;;;;;;;7.82;7.13;;;;;;;;;;3576169;40;20407;-70
2021/04/22 02:40:06;;;;;;;8.98;8.07;;;;;;;;;;3573220;40;20373;-71
2021/04/22 02:42:32;;;;;;;8.68;7.80;;;;;;;;;;3577199;40;20376;-69
2021/04/22 02:44:58;;;;;;;7.15;6.55;;;;;;;;;;3577399;40;20650;-70
2021/04/22 02:47:26;;;;;;;9.70;8.75;;;;;;;;;;3576110;40;20814;-70
2021/04/22 02:49:52;;;;;;;9.35;8.02;;;;;;;;;;3577214;40;20744;-71
2021/04/22 02:52:18;;;;;;;9.10;8.20;;;;;;;;;;3571896;40;20400;-70
2021/04/22 02:54:44;;;;;;;8.52;7.30;;;;;;;;;;3572972;40;20719;-70
2021/04/22 02:57:11;;;;;;;9.50;8.52;;;;;;;;;;3577060;40;20387;-70
2021/04/22 02:59:37;;;;;;;9.27;8.10;;;;;;;;;;3572640;40;20407;-70
2021/04/22 03:02:03;;;;;;;8.15;7.38;;;;;;;;;;3573030;40;20391;-70
2021/04/22 03:04:30;;;;;;;8.30;7.50;;;;;;;;;;3572620;40;20427;-70
2021/04/22 03:06:56;;;;;;;9.27;8.48;;;;;;;;;;3577188;40;20652;-70
2021/04/22 03:09:23;;;;;;;8.02;7.32;;;;;;;;;;3576876;40;20376;-70
2021/04/22 03:11:49;;;;;;;8.13;7.13;;;;;;;;;;3574091;40;20788;-70
2021/04/22 03:14:15;;;;;;;7.93;7.22;;;;;;;;;;3577234;40;20399;-70
2021/04/22 03:16:41;;;;;;;9.27;8.38;;;;;;;;;;3576856;40;20383;-70
2021/04/22 03:19:07;;;;;;;8.40;7.68;;;;;;;;;;3572429;40;20778;-70
2021/04/22 03:21:34;;;;;;;7.32;6.72;;;;;;;;;;3574795;40;20380;-70
2021/04/22 03:24:01;;;;;;;7.45;6.68;;;;;;;;;;3577440;40;20380;-70
2021/04/22 03:26:27;;;;;;;7.75;6.82;;;;;;;;;;3577203;40;20376;-69
2021/04/22 03:28:53;;;;;;;7.93;7.22;;;;;;;;;;3576873;40;20476;-70
2021/04/22 03:31:19;;;;;;;7.47;6.78;;;;;;;;;;3577105;40;20764;-70
2021/04/22 03:33:45;;;;;;;7.05;6.38;;;;;;;;;;3576979;40;20399;-69
2021/04/22 03:36:12;;;;;;;6.65;6.05;;;;;;;;;;3577079;40;20760;-70
2021/04/22 03:38:39;;;;;;;7.67;6.97;;;;;;;;;;3566773;40;20836;-70
2021/04/22 03:41:05;;;;;;;7.20;6.50;;;;;;;;;;3571324;40;20802;-70
2021/04/22 03:43:31;;;;;;;6.88;6.28;;;;;;;;;;3573967;40;20545;-69
2021/04/22 03:45:57;;;;;;;7.88;7.18;;;;;;;;;;3576946;40;20387;-70
2021/04/22 03:48:24;;;;;;;8.00;7.30;;;;;;;;;;3577143;40;20452;-70
2021/04/22 03:50:50;;;;;;;7.18;6.57;;;;;;;;;;3576723;40;20383;-71
2021/04/22 03:53:16;;;;;;;7.60;7.00;;;;;;;;;;3577046;40;20981;-70
2021/04/22 03:55:43;;;;;;;8.55;7.32;;;;;;;;;;3576688;40;20396;-70
2021/04/22 03:58:09;;;;;;;7.47;6.77;;;;;;;;;;3576962;40;20399;-70
2021/04/22 04:00:36;;;;;;;7.82;7.13;;;;;;;;;;3567415;40;20396;-71
2021/04/22 04:03:02;;;;;;;6.70;6.00;;;;;;;;;;3567493;40;20396;-70
2021/04/22 04:05:28;;;;;;;7.38;6.68;;;;;;;;;;3577356;40;20759;-69
2021/04/22 04:07:54;;;;;;;8.75;7.88;;;;;;;;;;3576744;40;20402;-70
2021/04/22 04:10:21;;;;;;;7.38;6.68;;;;;;;;;;3571642;40;20384;-70
2021/04/22 04:12:48;;;;;;;8.13;7.32;;;;;;;;;;3582663;40;20749;-70
2021/04/22 04:15:14;;;;;;;7.55;6.85;;;;;;;;;;3565615;40;20424;-70
2021/04/22 04:17:41;;;;;;;6.68;6.07;;;;;;;;;;3572799;40;20387;-70
2021/04/22 04:20:07;;;;;;;7.07;6.47;;;;;;;;;;3576667;40;20406;-70
2021/04/22 04:22:34;;;;;;;6.78;6.18;;;;;;;;;;3576914;40;20388;-70
2021/04/22 04:25:00;;;;;;;5.88;5.38;;;;;;;;;;3576608;40;20382;-69
2021/04/22 04:27:26;;;;;;;6.60;6.00;;;;;;;;;;3576669;40;20383;-69
2021/04/22 04:29:53;;;;;;;6.07;5.57;;;;;;;;;;3576620;40;20384;-70
2021/04/22 04:32:19;;;;;;;6.00;5.50;;;;;;;;;;3568842;40;20673;-69
2021/04/22 04:34:46;;;;;;;5.47;5.07;;;;;;;;;;3576635;40;20404;-69
2021/04/22 04:37:12;;;;;;;6.30;5.70;;;;;;;;;;3576326;40;20446;-69
2021/04/22 04:39:38;;;;;;;6.53;5.55;;;;;;;;;;3576640;40;20391;-69
2021/04/22 04:42:05;;;;;;;5.53;5.13;;;;;;;;;;3572456;40;20485;-69
2021/04/22 04:44:31;;;;;;;6.15;5.65;;;;;;;;;;3574173;40;20498;-69
2021/04/22 04:46:58;;;;;;;7.45;6.85;;;;;;;;;;3567073;40;20414;-69
2021/04/22 04:49:24;;;;;;;7.13;6.53;;;;;;;;;;3576825;40;20380;-69
2021/04/22 04:51:50;;;;;;;7.13;6.53;;;;;;;;;;3567304;40;20411;-69
2021/04/22 04:54:17;;;;;;;6.88;6.30;;;;;;;;;;3574070;40;20406;-69
2021/04/22 04:56:43;;;;;;;7.68;6.50;;;;;;;;;;3571352;40;20415;-69
2021/04/22 04:59:09;;;;;;;7.13;6.55;;;;;;;;;;3576358;40;20436;-69
2021/04/22 05:01:36;;;;;;;7.35;6.60;;;;;;;;;;3575381;40;20402;-69
2021/04/22 05:04:03;;;;;;;7.00;6.40;;;;;;;;;;3576064;40;20416;-70
2021/04/22 05:06:30;;;;;;;7.13;6.53;;;;;;;;;;3576931;40;20383;-70
2021/04/22 05:08:56;;;;;;;6.32;5.82;;;;;;;;;;3576697;40;20637;-69
2021/04/22 05:11:22;;;;;;;5.72;5.32;;;;;;;;;;3576290;40;20392;-69
2021/04/22 05:13:48;;;;;;;6.28;5.78;;;;;;;;;;3576821;40;20764;-68
2021/04/22 05:16:15;;;;;;;6.35;5.85;;;;;;;;;;3576596;40;20390;-70
2021/04/22 05:18:41;;;;;;;6.22;5.72;;;;;;;;;;3576766;40;20384;-72
2021/04/22 05:21:08;;;;;;;6.20;5.70;;;;;;;;;;3576665;40;20390;-70
2021/04/22 05:23:35;;;;;;;7.45;6.82;;;;;;;;;;3576239;40;20846;-69
2021/04/22 05:26:01;;;;;;;7.00;6.43;;;;;;;;;;3575820;40;20388;-69
2021/04/22 05:28:27;;;;;;;7.13;6.53;;;;;;;;;;3574368;40;20473;-70
2021/04/22 05:30:53;;;;;;;8.48;7.68;;;;;;;;;;3566491;40;20396;-69
2021/04/22 05:33:19;;;;;;;8.20;7.40;;;;;;;;;;3574585;40;20681;-69
2021/04/22 05:35:46;;;;;;;7.80;7.10;;;6.70;99.90;;;;;;3573331;40;20415;-70
2021/04/22 05:38:13;;;;;;;7.37;6.77;;;6.10;99.90;;;;;;3574480;40;20419;-72
2021/04/22 05:40:40;;;;;;;7.30;6.70;;;6.10;99.90;;;;;;3575006;40;20400;-72
2021/04/22 05:43:07;;;;;;;8.10;7.40;;;6.10;99.90;;;;;;3573615;40;20390;-72
2021/04/22 05:45:34;;;;;;;8.68;7.88;;;6.20;99.90;;;;;;3570978;40;20376;-70
2021/04/22 05:48:00;;;;;;;8.85;8.05;;;6.20;99.90;;;;;;3572593;40;20665;-69
2021/04/22 05:50:26;;;;;;;8.35;7.55;;;;;;;;;;3575749;40;20458;-69
2021/04/22 05:52:52;;;;;;;9.85;8.95;;;;;;;;;;3576119;40;20777;-69
2021/04/22 05:55:20;;;;;;;9.73;8.82;;;;;;;;;;3575770;40;20404;-70
2021/04/22 05:57:47;;;;;;;9.98;8.98;;;;;;;;;;3559458;40;20402;-69
2021/04/22 06:00:14;;;;;;;10.05;9.05;;;;;;;;;;3574370;40;20403;-69
2021/04/22 06:02:41;;;;;;;10.55;9.48;;;;;;;;;;3557703;40;20483;-70
2021/04/22 06:05:08;;;;;;;12.50;11.30;;;;;;;;;;3580526;40;20501;-69
2021/04/22 06:07:34;;;;;;;12.82;11.50;;;;;;;;;;3576283;40;20756;-70
2021/04/22 06:10:00;;;;;;;12.60;11.40;;;;;;;;;;3576104;40;20462;-69
2021/04/22 06:12:27;;;;;;;13.35;11.32;;;;;;;;;;3575551;40;20394;-70
2021/04/22 06:14:53;;;;;;;12.93;11.63;;;;;;;;;;3575770;40;20395;-70
2021/04/22 06:17:20;;;;;;;13.30;11.98;;;;;;;;;;3576183;40;20387;-69
2021/04/22 06:19:46;;;;;;;12.93;11.65;;;;;;;;;;3575850;40;20435;-71
2021/04/22 06:22:12;;;;;;;12.75;11.65;;;;;;;;;;3571579;40;20655;-71
2021/04/22 06:24:38;;;;;;;12.95;11.75;;;;;;;;;;3572547;40;20392;-72
2021/04/22 06:27:05;;;;;;;12.82;11.63;;;;;;;;;;3575965;40;20957;-71
2021/04/22 06:29:32;;;;;;;14.77;13.43;;;;;;;;;;3576123;40;20423;-71
2021/04/22 06:31:59;;;;;;;13.90;12.60;;;;;;;;;;3575889;40;20380;-72
2021/04/22 06:34:25;;;;;;;12.40;11.25;;;;;;;;;;3576329;40;20400;-72
2021/04/22 06:36:52;;;;;;;12.73;11.63;;;;;;;;;;3569195;40;20390;-72
2021/04/22 06:39:18;;;;;;;12.18;11.07;;;;;;;;;;3573754;40;20696;-72
2021/04/22 06:41:44;;;;;;;10.68;9.68;;;;;;;;;;3574071;40;20473;-73
2021/04/22 06:44:10;;;;;;;10.05;9.15;;;;;;;;;;3577185;40;20392;-73
2021/04/22 06:46:39;;;;;;;8.98;8.18;;;;;;;;;;3573055;40;20379;-72
2021/04/22 06:49:05;;;;;;;9.45;8.52;;;;;;;;;;3577176;40;20476;-72
2021/04/22 06:51:31;;;;;;;9.82;8.32;;;;;;;;;;3577118;40;20461;-72
2021/04/22 06:53:57;;;;;;;8.98;8.07;;;;;;;;;;3576214;40;20406;-73
2021/04/22 06:56:24;;;;;;;8.02;7.22;;;;;;;;;;3577033;40;20469;-73
2021/04/22 06:58:50;;;;;;;7.75;7.05;;;;;;;;;;3567599;40;20796;-72
2021/04/22 07:01:16;;;;;;;8.20;7.40;;;;;;;;;;3574909;40;20403;-72
2021/04/22 07:03:43;;;;;;;8.18;7.03;;;;;;;;;;3576828;40;20415;-72
2021/04/22 07:06:10;;;;;;;7.20;6.50;;;;;;;;;;3577318;40;20380;-72
2021/04/22 07:08:36;;;;;;;7.13;6.43;;;;;;;;;;3573160;40;20640;-72
2021/04/22 07:11:02;;;;;;;7.20;6.50;;;;;;;;;;3573192;40;20538;-72
2021/04/22 07:13:28;;;;;;;8.25;6.45;;;;;;;;;;3577279;40;20387;-72
2021/04/22 07:15:55;;;;;;;7.03;6.33;;;;;;;;;;3577609;40;20590;-73
2021/04/22 07:18:21;;;;;;;6.75;6.05;;;;;;;;;;3570274;40;20387;-72
2021/04/22 07:20:48;;;;;;;6.97;6.30;;;;;;;;;;3577487;40;20731;-73
2021/04/22 07:23:17;;;;;;;9.07;6.50;;;;;;;;;;3576103;40;20403;-72
2021/04/22 07:25:43;;;;;;;6.60;5.63;;;;;;;;;;3576198;40;20769;-72
2021/04/22 07:28:11;;;;;;;5.35;4.85;;;;;;;;;;3577345;40;20384;-72
2021/04/22 07:30:38;;;;;;;6.15;5.55;;;;;;;;;;3567311;40;20385;-73
2021/04/22 07:33:05;;;;;;;5.90;5.30;;;11.40;99.90;;;;;;3573326;40;20394;-72
2021/04/22 07:35:31;;;;;;;5.90;5.03;;;11.80;99.90;;;;;;3570096;40;20404;-72
2021/04/22 07:37:58;;;;;;;6.10;4.57;;;;;;;;;;3571956;40;20655;-70
2021/04/22 07:40:27;;;;;;;5.20;4.32;;;;;;;;;;3575358;40;20773;-70
2021/04/22 07:42:53;;;;;;;5.43;4.03;;;;;;;;;;3577135;40;20510;-72
2021/04/22 07:45:20;;;;;;;4.90;3.58;;;;;;;;;;3576998;40;20789;-72
2021/04/22 07:47:46;;;;;;;5.80;4.30;;;;;;;;;;3572676;40;20380;-73
2021/04/22 07:50:14;;;;;;;5.33;3.80;;;;;;;;;;3576610;40;20376;-69
2021/04/22 07:52:40;;;;;;;4.13;3.55;;;;;;;;;;3576911;40;20464;-70
2021/04/22 07:55:09;;;;;;;4.50;4.10;;;;;;;;;;3572813;40;20786;-70
2021/04/22 07:57:35;;;;;;;6.87;5.83;;;;;;;;;;3576930;40;20432;-69
2021/04/22 08:00:01;;;;;;;7.47;6.80;;;;;;;;;;3574851;40;20459;-69
2021/04/22 08:02:27;;;;;;;6.83;6.23;;;;;;;;;;3575202;40;20388;-69
2021/04/22 08:04:54;;;;;;;7.03;6.20;;;;;;;;;;3572477;40;20411;-70
2021/04/22 08:07:20;;;;;;;7.40;6.10;;;;;;;;;;3576793;40;20372;-69
2021/04/22 08:09:46;;;;;;;7.23;6.60;;;;;;;;;;3577011;40;20473;-70
2021/04/22 08:12:13;;;;;;;7.15;6.55;;;;;;;;;;3576554;40;20398;-70
2021/04/22 08:14:39;;;;;;;6.10;5.60;;;;;;;;;;3576980;40;20481;-69
2021/04/22 08:17:06;;;;;;;5.72;5.22;;;;;;;;;;3577005;40;20380;-69
2021/04/22 08:19:34;;;;;;;5.40;4.90;;;13.60;99.90;;;;;;3577027;40;20383;-70
2021/04/22 08:22:01;;;;;;;6.15;5.20;;;14.60;96.40;;;;;;3576586;40;20461;-69
2021/04/22 08:24:27;;;;;;;5.60;5.05;;;14.50;96.80;;;;;;3576853;40;20383;-69
2021/04/22 08:26:53;;;;;;;4.63;4.20;;;14.70;96.50;;;;;;3576665;40;20387;-69
2021/04/22 08:29:20;;;;;;;5.03;4.50;;;14.70;96.60;;;;;;3576872;40;20376;-70
2021/04/22 08:31:47;;;;;;;5.35;4.85;;;;;;;;;;3567176;40;20466;-69
2021/04/22 08:34:13;;;;;;;6.10;4.30;;;;;;;;;;3576636;40;20383;-70
2021/04/22 08:36:39;;;;;;;6.18;4.60;;;;;;;;;;3576688;40;20380;-70
2021/04/22 08:39:07;;;;;;;4.25;3.85;;;;;;;;;;3576646;40;20398;-70
2021/04/22 08:41:33;;;;;;;4.80;4.40;;;;;;;;;;3576640;40;20375;-69
2021/04/22 08:44:02;;;;;;;4.18;3.38;;;;;;;;;;3573800;40;20380;-69
2021/04/22 08:46:29;;;;;;;3.70;3.30;;;;;;;;;;3576730;40;20781;-69
2021/04/22 08:48:55;;;;;;;3.88;3.58;;;;;;;;;;3572424;40;20813;-69
2021/04/22 08:51:22;;;;;;;4.00;3.60;;;;;;;;;;3576630;40;20372;-70
2021/04/22 08:53:48;;;;;;;3.60;3.30;;;;;;;;;;3571271;40;20397;-70
2021/04/22 08:56:15;;;;;;;3.60;3.30;;;;;;;;;;3576384;40;20438;-69
2021/04/22 08:58:42;;;;;;;2.90;2.60;;;;;;;;;;3576693;40;20372;-70
2021/04/22 09:01:10;;;;;;;3.10;2.80;;;;;;;;;;3576478;40;20439;-69
2021/04/22 09:03:38;;;;;;;5.50;3.90;;;;;;;;;;3572288;40;20517;-70
2021/04/22 09:06:04;;;;;;;4.70;4.30;;;;;;;;;;3575483;40;20397;-71
2021/04/22 09:08:32;;;;;;;4.43;3.10;;;;;;;;;;3578648;40;20362;-70
2021/04/22 09:10:58;;;;;;;4.75;3.67;;;;;;;;;;3574271;40;20655;-70
2021/04/22 09:13:26;;;;;;;4.67;3.87;;;;;;;;;;3576469;40;20769;-70
2021/04/22 09:15:59;;;;;;;4.30;3.90;;;;;;;;;;3576546;40;20773;-71
2021/04/22 09:18:25;;;;;;;4.47;3.80;;;;;;;;;;3576647;40;20363;-70
2021/04/22 09:20:53;;;;;;;4.75;3.83;;;;;;;;;;3571754;40;20377;-70
2021/04/22 09:23:20;;;;;;;4.35;3.40;;;;;;;;;;3574343;40;20477;-69
2021/04/22 09:25:46;;;;;;;3.95;3.58;;;;;;;;;;3576548;40;20407;-70
2021/04/22 09:28:13;;;;;;;3.75;3.40;;;;;;;;;;3576248;40;20384;-69
2021/04/22 09:30:40;;;;;;;3.63;3.33;;;;;;;;;;3576616;40;20379;-69
2021/04/22 09:33:07;;;;;;;3.55;3.10;;;;;;;;;;3575822;40;20379;-70
2021/04/22 09:35:33;;;;;;;3.38;2.95;;;;;;;;;;3576436;40;20399;-69
2021/04/22 09:38:00;;;;;;;3.22;2.88;;;;;;;;;;3576538;40;20399;-69
2021/04/22 09:40:29;;;;;;;3.72;2.95;;;;;;;;;;3570575;40;20709;-70
2021/04/22 09:42:58;;;;;;;3.40;3.10;;;17.60;87.00;;;;;;3575438;40;20407;-70
2021/04/22 09:45:26;;;;;;;4.28;3.25;;;18.10;85.50;;;;;;3566880;40;20677;-68
2021/04/22 09:47:52;;;;;;;3.72;2.70;;;17.90;86.20;;;;;;3565932;40;20630;-69
2021/04/22 09:50:22;;;;;;;3.15;2.20;;;17.90;84.30;;;;;;3573283;40;20423;-69
2021/04/22 09:52:53;;;;;;;2.10;1.90;;;17.60;80.40;;;;;;3571404;40;20376;-69
2021/04/22 09:55:22;;;;;;;3.20;2.20;;;17.50;81.30;;;;;;3569214;40;20398;-69
2021/04/22 09:57:49;;;;;;;2.25;2.05;;;;;;;;;;3566426;40;20454;-69
2021/04/22 10:00:19;;;;;;;3.20;1.98;;;;;;;;;;3572070;40;20757;-70
2021/04/22 10:02:51;;;;;;;1.95;1.50;;;;;;;;;;3576065;40;20378;-69
2021/04/22 10:05:18;;;;;;;2.27;1.73;;;;;;;;;;3576426;40;20514;-69
2021/04/22 10:07:45;;;;;;;2.60;1.88;;;;;;;;;;3572186;40;20380;-70
2021/04/22 10:10:15;;;;;;;2.90;2.08;;;;;;;;;;3575971;40;20388;-70
2021/04/22 10:12:43;;;;;;;2.20;2.00;;;;;;;;;;3576767;40;20395;-70
2021/04/22 10:15:10;;;;;;;2.33;1.75;;;;;;;;;;3577595;40;20408;-69
2021/04/22 10:17:36;;;;;;;2.10;1.90;;;;;;;;;;3568420;40;20757;-71
2021/04/22 10:20:05;;;;;;;2.00;1.50;;;;;;;;;;3577775;40;20384;-69
2021/04/22 10:22:32;;;;;;;2.07;1.87;;;;;;;;;;3577938;40;20835;-69
2021/04/22 10:24:59;;;;;;;1.60;1.45;;;;;;;;;;3577471;40;20395;-69
2021/04/22 10:27:26;;;;;;;2.10;1.60;;;;;;;;;;3577600;40;20498;-70
2021/04/22 10:29:54;;;;;;;2.00;1.80;;;;;;;;;;3577786;40;20641;-70
2021/04/22 10:32:21;;;;;;;1.75;1.60;;;;;;;;;;3566873;40;20405;-69
2021/04/22 10:34:47;;;;;;;2.53;1.50;;;;;;;;;;3567434;40;20397;-69
2021/04/22 10:37:14;;;;;;;2.15;1.70;;;;;;;;;;3576713;40;20471;-69
2021/04/22 10:39:40;;;;;;;2.47;2.05;;;;;;;;;;3568688;40;20416;-69
2021/04/22 10:42:07;;;;;;;3.00;2.70;;;;;;;;;;3575819;40;20432;-69
2021/04/22 10:44:34;;;;;;;2.25;2.05;;;;;;;;;;3577367;40;20396;-70
2021/04/22 10:47:01;;;;;;;2.60;2.00;;;;;;;;;;3575920;40;20801;-71
2021/04/22 10:49:27;;;;;;;2.20;1.58;;;;;;;;;;3575624;40;20685;-69
2021/04/22 10:51:53;;;;;;;2.50;2.30;;;;;;;;;;3574039;40;20374;-69
2021/04/22 10:54:20;;;;;;;2.30;2.10;;;;;;;;;;3576850;40;20392;-69
2021/04/22 10:56:47;;;;;;;2.55;2.35;;;;;;;;;;3576896;40;20439;-70
2021/04/22 10:59:19;;;;;;;2.63;2.42;;;;;;;;;;3576334;40;20384;-69
2021/04/22 11:01:46;;;;;;;2.70;2.50;;;;;;;;;;3576612;40;20379;-69
2021/04/22 11:04:13;;;;;;;3.00;2.65;;;;;;;;;;3566624;40;20451;-69
2021/04/22 11:06:40;;;;;;;3.00;2.22;;;;;;;;;;3576933;40;20761;-70
2021/04/22 11:09:13;;;;;;;2.90;2.40;;;;;;;;;;3575489;40;20652;-70
2021/04/22 11:11:40;;;;;;;2.83;2.63;;;;;;;;;;3574980;40;20388;-70
2021/04/22 11:14:07;;;;;;;5.75;2.92;;;;;;;;;;3576225;40;20392;-70
2021/04/22 11:16:34;;;;;;;3.13;2.83;;;;;;;;;;3576763;40;20469;-70
2021/04/22 11:19:00;;;;;;;2.87;2.67;;;;;;;;;;3575814;40;20520;-70
2021/04/22 11:21:28;;;;;;;3.25;2.95;;;;;;;;;;3576672;40;20388;-70
2021/04/22 11:23:56;;;;;;;3.00;2.80;;;;;;;;;;3576114;40;20460;-70
2021/04/22 11:26:24;;;;;;;2.72;2.53;;;;;;;;;;3575207;40;20401;-70
2021/04/22 11:28:50;;;;;;;4.13;3.10;;;;;;;;;;3575378;40;20480;-69
2021/04/22 11:31:18;;;;;;;2.92;2.60;;;;;;;;;;3576805;40;20388;-69
2021/04/22 11:33:45;;;;;;;2.88;2.67;;;;;;;;;;3576410;40;20392;-70
2021/04/22 11:36:20;;;;;;;3.60;3.30;;;;;;;;;;3575737;40;20379;-72
2021/04/22 11:39:04;;;;;;;3.80;3.50;;;;;;;;;;3565850;40;20394;-70
2021/04/22 11:41:33;;;;;;;3.67;3.38;;;;;;;;;;3574423;40;20485;-70
2021/04/22 11:44:00;;;;;;;3.20;3.00;;;;;;;;;;3576204;40;20469;-70
2021/04/22 11:46:32;;;;;;;3.50;3.20;;;;;;;;;;3576619;40;20388;-70
2021/04/22 11:48:58;;;;;;;3.53;3.22;;;;;;;;;;3576419;40;20372;-70
2021/04/22 11:51:33;;;;;;;3.47;3.10;;;;;;;;;;3566839;40;20799;-70
2021/04/22 11:53:59;;;;;;;2.92;2.60;;;;;;;;;;3579164;40;20467;-70
2021/04/22 11:56:26;;;;;;;3.58;3.28;;;19.50;74.50;;;;;;3576514;40;20461;-70
2021/04/22 11:58:53;;;;;;;4.07;3.38;;;;;;;;;;3576425;40;20663;-70
2021/04/22 12:01:19;;;;;;;3.00;2.70;;;;;;;;;;3573975;40;20388;-70
2021/04/22 12:03:46;;;;;;;4.30;3.38;;;;;;;;;;3576898;40;20411;-70
2021/04/22 12:06:14;;;;;;;3.28;3.08;;;;;;;;;;3577070;40;20375;-70
2021/04/22 12:08:41;;;;;;;3.42;2.83;;;;;;;;;;3576929;40;20383;-70
2021/04/22 12:11:08;;;;;;;2.45;2.28;;;;;;;;;;3572876;40;20392;-70
2021/04/22 12:13:35;;;;;;;2.40;2.17;;;;;;;;;;3569850;40;20420;-69
2021/04/22 12:16:03;;;;;;;2.78;1.80;;;;;;;;;;3571152;40;20464;-70
2021/04/22 12:18:31;;;;;;;2.13;1.98;;;;;;;;;;3575639;40;20392;-70
2021/04/22 12:21:06;;;;;;;2.70;2.42;;;;;;;;;;3575340;40;20392;-70
2021/04/22 12:23:33;;;;;;;2.10;1.90;;;;;;;;;;3575158;40;20378;-70
2021/04/22 12:26:11;;;;;;;2.58;2.38;;;;;;;;;;3576249;40;20525;-70
2021/04/22 12:28:37;;;;;;;2.87;2.63;;;;;;;;;;3576147;40;20466;-70
2021/04/22 12:31:05;;;;;;;2.80;2.60;;;;;;;;;;3576044;40;20384;-70
2021/04/22 12:33:31;;;;;;;2.63;2.22;;;;;;;;;;3576944;40;20391;-70
2021/04/22 12:35:59;;;;;;;2.80;2.35;;;;;;;;;;3576674;40;20430;-69
2021/04/22 12:38:26;;;;;;;2.72;2.40;;;;;;;;;;3576768;40;20399;-70
2021/04/22 12:40:56;;;;;;;2.47;1.88;;;;;;;;;;3576666;40;20423;-71
2021/04/22 12:43:23;;;;;;;3.05;2.35;;;;;;;;;;3576700;40;20749;-70
2021/04/22 12:45:49;;;;;;;3.00;1.80;;;;;;;;;;3580991;40;20388;-70
2021/04/22 12:48:16;;;;;;;2.17;1.75;;;;;;;;;;3575656;40;20404;-70
2021/04/22 12:50:43;;;;;;;2.00;1.80;;;;;;;;;;3572385;40;20444;-70
2021/04/22 12:53:13;;;;;;;2.20;2.00;;;;;;;;;;3576829;40;20497;-70
2021/04/22 12:55:42;;;;;;;2.17;1.60;;;;;;;;;;3576631;40;20788;-71
2021/04/22 12:58:10;;;;;;;2.28;1.75;;;;;;;;;;3575068;40;20761;-70
2021/04/22 13:00:37;;;;;;;2.80;2.50;;;;;;;;;;3573918;40;20388;-71
2021/04/22 13:03:08;;;;;;;2.30;2.10;;;;;;;;;;3572132;40;20398;-69
2021/04/22 13:05:38;;;;;;;2.47;1.90;;;;;;;;;;3576593;40;20392;-70
2021/04/22 13:08:04;;;;;;;1.60;1.50;;;;;;;;;;3564094;40;20384;-70
2021/04/22 13:10:31;;;;;;;2.10;1.60;;;;;;;;;;3580384;40;20388;-72
2021/04/22 13:12:57;;;;;;;2.33;2.13;;;;;;;;;;3576153;40;20380;-69
2021/04/22 13:15:24;;;;;;;2.20;2.00;;;;;;;;;;3576744;40;20402;-70
2021/04/22 13:17:50;;;;;;;3.70;2.47;;;;;;;;;;3576626;40;20386;-70
2021/04/22 13:20:21;;;;;;;2.60;2.22;;;;;;;;;;3576387;40;20384;-70
2021/04/22 13:22:49;;;;;;;2.13;2.00;;;;;;;;;;3576435;40;20648;-70
2021/04/22 13:25:16;;;;;;;1.75;1.65;;;;;;;;;;3576422;40;20470;-70
2021/04/22 13:27:42;;;;;;;1.63;1.52;;;;;;;;;;3576663;40;20477;-70
2021/04/22 13:30:09;;;;;;;2.23;2.03;;;;;;;;;;3568255;40;20747;-70
2021/04/22 13:32:35;;;;;;;2.30;1.67;;;;;;;;;;3570834;40;20776;-70
2021/04/22 13:35:02;;;;;;;1.85;1.40;;;;;;;;;;3576318;40;20415;-70
2021/04/22 13:37:28;;;;;;;2.20;1.70;;;22.30;61.90;;;;;;3576499;40;20404;-70
2021/04/22 13:39:55;;;;;;;2.35;2.15;;;22.70;56.10;;;;;;3567208;40;20467;-70
2021/04/22 13:42:22;;;;;;;2.55;2.20;;;;;;;;;;3575176;40;20411;-70
2021/04/22 13:44:48;;;;;;;2.70;1.77;;;;;;;;;;3571967;40;20510;-70
2021/04/22 13:47:17;;;;;;;1.98;1.88;;;;;;;;;;3575918;40;20438;-70
2021/04/22 13:49:44;;;;;;;2.05;1.80;;;;;;;;;;3574385;40;20443;-70
2021/04/22 13:52:11;;;;;;;2.20;2.00;;;;;;;;;;3574116;40;20462;-71
2021/04/22 13:54:38;;;;;;;2.63;2.35;;;;;;;;;;3576018;40;20397;-71
2021/04/22 13:57:11;;;;;;;2.95;1.80;;;;;;;;;;3576317;40;20383;-72
2021/04/22 13:59:37;;;;;;;2.00;1.60;;;;;;;;;;3573763;40;20380;-71
2021/04/22 14:02:07;;;;;;;2.75;1.90;;;;;;;;;;3576355;40;20394;-71
2021/04/22 14:04:33;;;;;;;2.35;1.40;;;;;;;;;;3563732;40;20434;-71
2021/04/22 14:07:00;;;;;;;2.00;1.80;;;;;;;;;;3576138;40;20395;-70
2021/04/22 14:09:27;;;;;;;2.72;1.65;;;;;;;;;;3571958;40;20396;-71
2021/04/22 14:11:54;;;;;;;2.20;2.00;;;;;;;;;;3575765;40;20431;-71
2021/04/22 14:14:23;;;;;;;3.03;2.30;;;;;;;;;;3576037;40;20399;-71
2021/04/22 14:16:49;;;;;;;2.40;1.67;;;;;;;;;;3576113;40;20389;-71
2021/04/22 14:19:16;;;;;;;1.95;1.77;;;;;;;;;;3575948;40;20392;-71
2021/04/22 14:21:43;;;;;;;2.08;1.90;;;;;;;;;;3569133;40;20384;-70
2021/04/22 14:24:10;;;;;;;2.33;2.10;;;;;;;;;;3575957;40;20384;-70
2021/04/22 14:26:37;;;;;;;1.90;1.70;;;;;;;;;;3575740;40;20501;-70
2021/04/22 14:29:06;;;;;;;2.80;1.58;;;;;;;;;;3576076;40;20376;-70
2021/04/22 14:31:33;;;;;;;2.50;1.90;;;;;;;;;;3576209;40;20383;-70